Duty Ferry, Louisiana
Current Conditions -  °F | °C
As of 4:53 AM on Sunday 23 Nov 2014 (Local Time) from KMLU Reporting Station
Light Rain Light Rain  
Wind Chill: 62°   Ceiling: 800
Heat Index: 62°   Visibility: 10mi
Dew Point: 60°   Wind: 6mph
Humidity: 93%   Direction: 150°SSE
Pressure: 29.72"   Gusts: NA
Location:  32.1631°N, 92.1971°W
Report Text: KMLU 231053Z AUTO 15005KT 10SM -RA OVC008 17/16 A2972 RMK AO2 RAB32 SLP062 P0000 T01670156
Loading
Personal Weather Stations






























Interactive Weather Map New forecast layout! Learn more

10-Day Weather Forecast

Advertisements
Track Severe Weather on mobile